Terminal Aerodrome Forecast
Issued by NWS

Home | Current Version | Previous Version | Graphics & Text | Print | Product List | Glossary On
Versions: 1 2 3 4 5 6 7 8 9 10 11 12 13 14 15 16
276
FTUS43 KBIS 180528
TAFMOT
TAF
KMOT 180528Z 1806/1906 31009KT P6SM SCT045 BKN060
     FM181000 30011KT P6SM BKN045
     FM181400 29015G23KT P6SM SCT180
     FM190000 24007KT P6SM SKC=

USA.gov is the U.S. government's official web portal to all federal, state and local government web resources and services.